createdAt,value
2022-08-26T00:01:14.797Z,62.32
2022-08-26T00:03:50.716Z,62.46
2022-08-26T00:06:20.332Z,62.87
2022-08-26T00:08:50.277Z,62.97
2022-08-26T00:11:36.705Z,63.40
2022-08-26T00:14:06.292Z,62.63
2022-08-26T00:16:47.187Z,63.70
2022-08-26T00:19:18.632Z,63.55
2022-08-26T00:21:48.700Z,63.17
2022-08-26T00:24:23.952Z,63.97
2022-08-26T00:26:53.407Z,63.24
2022-08-26T00:29:22.870Z,63.38
2022-08-26T00:31:59.157Z,63.66
2022-08-26T00:34:28.728Z,63.97
2022-08-26T00:36:57.852Z,64.30
2022-08-26T00:39:27.899Z,64.54
2022-08-26T00:41:57.153Z,64.61
2022-08-26T00:44:26.714Z,64.63
2022-08-26T00:47:02.919Z,64.54
2022-08-26T00:49:39.133Z,64.34
2022-08-26T00:52:19.283Z,64.54
2022-08-26T00:54:55.430Z,65.37
2022-08-26T00:57:25.615Z,64.71
2022-08-26T01:00:00.568Z,65.53
2022-08-26T01:02:32.504Z,66.03
2022-08-26T01:05:05.189Z,65.95
2022-08-26T01:07:45.149Z,65.48
2022-08-26T01:10:17.708Z,66.69
2022-08-26T01:12:50.148Z,66.77
2022-08-26T01:15:24.675Z,67.29
2022-08-26T01:18:03.326Z,67.47
2022-08-26T01:20:40.834Z,67.57
2022-08-26T01:23:14.708Z,67.69
2022-08-26T01:25:52.257Z,67.49
2022-08-26T01:28:24.827Z,67.32
2022-08-26T01:30:57.154Z,66.77
2022-08-26T01:33:42.633Z,67.85
2022-08-26T01:36:13.053Z,67.59
2022-08-26T01:38:44.901Z,67.33
2022-08-26T01:41:19.742Z,67.71
2022-08-26T01:43:59.094Z,67.83
2022-08-26T01:46:32.594Z,67.46
2022-08-26T01:49:06.686Z,68.07
2022-08-26T01:51:39.827Z,68.25
2022-08-26T01:54:13.737Z,69.14
2022-08-26T01:56:48.960Z,69.03
2022-08-26T01:59:20.227Z,69.07
2022-08-26T02:01:55.835Z,69.45
2022-08-26T02:04:29.378Z,69.49
2022-08-26T02:06:59.482Z,69.18
2022-08-26T02:09:30.862Z,69.85
2022-08-26T02:12:01.827Z,69.62
2022-08-26T02:14:35.262Z,70.18
2022-08-26T02:17:19.326Z,69.95
2022-08-26T02:19:57.280Z,69.98
2022-08-26T02:22:26.645Z,69.70
2022-08-26T02:25:01.042Z,69.98
2022-08-26T02:27:34.539Z,70.07
2022-08-26T02:30:13.108Z,70.76
2022-08-26T02:32:43.340Z,70.42
2022-08-26T02:35:20.097Z,70.23
2022-08-26T02:37:50.245Z,70.58
2022-08-26T02:40:25.179Z,70.59
2022-08-26T02:42:56.052Z,70.11
2022-08-26T02:45:27.129Z,69.90
2022-08-26T02:47:58.174Z,70.28
2022-08-26T02:50:34.553Z,70.10
2022-08-26T02:53:04.138Z,70.29
2022-08-26T02:55:42.678Z,70.43
2022-08-26T02:58:15.614Z,70.60
2022-08-26T03:00:52.889Z,70.59
2022-08-26T03:03:35.729Z,70.56
2022-08-26T03:06:05.125Z,70.46
2022-08-26T03:08:34.271Z,69.75
2022-08-26T03:11:10.838Z,70.02
2022-08-26T03:13:41.016Z,69.81
2022-08-26T03:16:10.831Z,69.87
2022-08-26T03:18:52.200Z,69.31
2022-08-26T03:21:23.616Z,69.63
2022-08-26T03:23:53.703Z,68.92
2022-08-26T03:26:24.984Z,69.16
2022-08-26T03:29:12.299Z,68.74
2022-08-26T03:31:41.561Z,68.25
2022-08-26T03:34:12.641Z,67.89
2022-08-26T03:36:41.774Z,66.96
2022-08-26T03:39:11.143Z,67.08
2022-08-26T03:41:44.723Z,66.76
2022-08-26T03:44:14.721Z,66.44
2022-08-26T03:46:44.155Z,66.73
2022-08-26T03:49:18.437Z,66.27
2022-08-26T03:51:47.634Z,66.55
2022-08-26T03:54:17.454Z,66.27
2022-08-26T03:56:48.632Z,65.92
2022-08-26T03:59:17.854Z,65.08
2022-08-26T04:01:47.236Z,64.17
2022-08-26T04:04:24.565Z,64.00
2022-08-26T04:06:58.634Z,63.08
2022-08-26T04:09:29.441Z,62.13
2022-08-26T04:12:00.890Z,61.38
2022-08-26T04:14:37.174Z,61.41
2022-08-26T04:17:07.875Z,61.07
2022-08-26T04:19:42.276Z,60.61
2022-08-26T04:22:11.473Z,60.82
2022-08-26T04:24:40.896Z,60.25
2022-08-26T04:27:22.358Z,59.62
2022-08-26T04:29:55.156Z,59.49
2022-08-26T04:32:32.459Z,58.84
2022-08-26T04:35:02.334Z,58.04
2022-08-26T04:37:44.075Z,57.15
2022-08-26T04:40:18.716Z,56.19
2022-08-26T04:42:50.366Z,55.63
2022-08-26T04:45:21.252Z,55.12
2022-08-26T04:47:58.018Z,55.07
2022-08-26T04:50:27.694Z,55.21
2022-08-26T04:52:57.155Z,54.95
2022-08-26T04:55:39.890Z,54.86
2022-08-26T04:58:19.456Z,54.51
2022-08-26T05:00:56.362Z,54.42
2022-08-26T05:03:26.843Z,53.77
2022-08-26T05:06:11.710Z,53.38
2022-08-26T05:08:41.596Z,53.29
2022-08-26T05:11:15.988Z,52.67
2022-08-26T05:13:47.151Z,52.43
2022-08-26T05:19:06.493Z,51.68
2022-08-26T05:21:38.273Z,51.83
2022-08-26T05:24:16.296Z,51.34
2022-08-26T05:26:51.792Z,51.00
2022-08-26T05:29:28.368Z,50.64
2022-08-26T05:31:57.615Z,50.75
2022-08-26T05:34:30.270Z,51.19
2022-08-26T05:37:02.417Z,50.68
2022-08-26T05:39:33.546Z,50.30
2022-08-26T05:42:07.917Z,50.24
2022-08-26T05:44:55.783Z,50.25
2022-08-26T05:47:25.808Z,49.29
2022-08-26T05:50:00.701Z,49.55
2022-08-26T05:52:35.123Z,48.65
2022-08-26T05:55:04.307Z,48.16
2022-08-26T05:57:36.329Z,47.29
2022-08-26T06:00:12.156Z,46.69
2022-08-26T06:02:44.056Z,47.11
2022-08-26T06:05:23.167Z,46.28
2022-08-26T06:08:05.663Z,46.21
2022-08-26T06:10:40.444Z,45.89
2022-08-26T06:13:12.399Z,46.20
2022-08-26T06:15:45.255Z,46.06
2022-08-26T06:18:16.327Z,45.96
2022-08-26T06:20:57.850Z,45.44
2022-08-26T06:23:42.576Z,45.09
2022-08-26T06:26:17.918Z,44.42
2022-08-26T06:28:47.272Z,42.28
2022-08-26T06:31:18.567Z,41.35
2022-08-26T06:33:47.937Z,41.77
2022-08-26T06:36:21.125Z,40.79
2022-08-26T06:38:51.226Z,40.33
2022-08-26T06:41:22.472Z,39.85
2022-08-26T06:43:52.251Z,38.79
2022-08-26T06:46:24.357Z,38.24
2022-08-26T06:48:57.775Z,38.15
2022-08-26T06:51:34.578Z,37.55
2022-08-26T06:54:06.698Z,36.93
2022-08-26T06:56:39.952Z,37.81
2022-08-26T06:59:09.952Z,37.35
2022-08-26T07:01:45.652Z,37.88
2022-08-26T07:04:21.899Z,37.25
2022-08-26T07:06:57.994Z,37.06
2022-08-26T07:09:34.825Z,36.53
2022-08-26T07:12:06.948Z,36.70
2022-08-26T07:14:36.626Z,36.46
2022-08-26T07:17:13.715Z,36.06
2022-08-26T07:19:48.702Z,36.20
2022-08-26T07:22:18.407Z,35.09
2022-08-26T07:24:47.877Z,35.57
2022-08-26T07:27:18.575Z,35.45
2022-08-26T07:29:48.088Z,34.61
2022-08-26T07:32:23.085Z,33.39
2022-08-26T07:34:52.226Z,33.16
2022-08-26T07:37:22.294Z,33.24
2022-08-26T07:39:52.526Z,32.93
2022-08-26T07:42:23.704Z,32.94
2022-08-26T07:44:53.270Z,32.51
2022-08-26T07:47:25.639Z,32.83
2022-08-26T07:49:57.321Z,32.92
2022-08-26T07:52:28.245Z,32.73
2022-08-26T07:54:58.447Z,32.05
2022-08-26T07:57:28.316Z,31.57
2022-08-26T07:59:57.942Z,31.66
2022-08-26T08:02:30.444Z,31.02
2022-08-26T08:04:59.922Z,31.35
2022-08-26T08:07:44.782Z,31.16
2022-08-26T08:10:21.329Z,30.54
2022-08-26T08:12:52.400Z,30.33
2022-08-26T08:15:24.574Z,31.83
2022-08-26T08:18:00.235Z,30.78
2022-08-26T08:20:31.776Z,31.51
2022-08-26T08:23:03.875Z,30.74
2022-08-26T08:25:33.989Z,30.73
2022-08-26T08:28:03.045Z,30.51
2022-08-26T08:30:32.454Z,30.17
2022-08-26T08:33:12.080Z,29.79
2022-08-26T08:35:43.308Z,30.19
2022-08-26T08:38:12.370Z,30.22
2022-08-26T08:40:42.824Z,29.90
2022-08-26T08:43:19.356Z,30.08
2022-08-26T08:45:53.369Z,29.52
2022-08-26T08:48:29.050Z,29.85
2022-08-26T08:51:07.746Z,30.16
2022-08-26T08:53:41.269Z,30.24
2022-08-26T08:56:23.265Z,30.78
2022-08-26T08:58:57.059Z,31.05
2022-08-26T09:01:46.862Z,30.85
2022-08-26T09:04:46.716Z,30.19
2022-08-26T09:07:21.558Z,30.15
2022-08-26T09:09:56.825Z,30.68
2022-08-26T09:12:29.910Z,30.81
2022-08-26T09:15:04.360Z,30.25
2022-08-26T09:17:50.514Z,30.98
2022-08-26T09:20:37.985Z,31.00
2022-08-26T09:23:08.961Z,29.27
2022-08-26T09:25:48.370Z,29.47
2022-08-26T09:28:20.423Z,29.97
2022-08-26T09:31:05.729Z,30.00
2022-08-26T09:33:42.385Z,29.27
2022-08-26T09:36:25.953Z,28.93
2022-08-26T09:38:56.078Z,28.96
2022-08-26T09:41:31.234Z,28.62
2022-08-26T09:44:15.601Z,29.01
2022-08-26T09:46:54.199Z,28.88
2022-08-26T09:49:36.391Z,28.97
2022-08-26T09:52:13.216Z,27.97
2022-08-26T09:54:44.222Z,28.01
2022-08-26T09:57:27.359Z,27.95
2022-08-26T10:00:00.676Z,28.08
2022-08-26T10:02:52.724Z,28.04
2022-08-26T10:05:33.373Z,27.34
2022-08-26T10:08:19.565Z,27.33
2022-08-26T10:10:53.127Z,27.07
2022-08-26T10:13:29.583Z,26.51
2022-08-26T10:16:10.727Z,25.33
2022-08-26T10:18:42.664Z,26.90
2022-08-26T10:21:18.057Z,25.47
2022-08-26T10:23:52.931Z,24.96
2022-08-26T10:26:28.734Z,24.92
2022-08-26T10:29:15.359Z,25.06
2022-08-26T10:31:51.462Z,25.15
2022-08-26T10:34:21.385Z,25.20
2022-08-26T10:37:13.937Z,24.75
2022-08-26T10:39:59.812Z,24.41
2022-08-26T10:42:35.189Z,24.49
2022-08-26T10:45:11.899Z,24.22
2022-08-26T10:47:52.336Z,23.85
2022-08-26T10:50:24.201Z,23.60
2022-08-26T10:53:02.369Z,23.45
2022-08-26T10:55:40.677Z,23.62
2022-08-26T10:58:26.544Z,23.81
2022-08-26T11:01:22.826Z,24.05
2022-08-26T11:04:00.770Z,24.00
2022-08-26T11:06:31.437Z,23.88
2022-08-26T11:09:02.336Z,24.12
2022-08-26T11:11:54.116Z,24.29
2022-08-26T11:14:56.186Z,23.66
2022-08-26T11:18:00.582Z,23.48
2022-08-26T11:20:36.288Z,22.16
2022-08-26T11:23:40.469Z,22.94
2022-08-26T11:26:35.821Z,22.85
2022-08-26T11:29:13.522Z,21.85
2022-08-26T11:31:58.101Z,22.22
2022-08-26T11:35:02.156Z,23.00
2022-08-26T11:37:37.258Z,22.52
2022-08-26T11:40:15.035Z,22.36
2022-08-26T11:42:55.154Z,22.58
2022-08-26T11:45:38.968Z,22.33
2022-08-26T11:48:17.314Z,22.92
2022-08-26T11:50:54.981Z,23.85
2022-08-26T11:53:26.168Z,24.24
2022-08-26T11:55:57.853Z,24.15
2022-08-26T11:58:29.709Z,25.58
2022-08-26T12:01:04.059Z,24.77
2022-08-26T12:03:40.674Z,25.05
2022-08-26T12:06:16.666Z,24.92
2022-08-26T12:08:47.542Z,25.58
2022-08-26T12:11:30.099Z,25.52
2022-08-26T12:14:07.414Z,25.61
2022-08-26T12:16:41.561Z,24.79
2022-08-26T12:19:25.853Z,25.50
2022-08-26T12:22:03.169Z,24.47
2022-08-26T12:24:33.010Z,24.55
2022-08-26T12:27:17.417Z,25.17
2022-08-26T12:29:48.396Z,25.42
2022-08-26T12:32:20.394Z,25.35
2022-08-26T12:34:50.714Z,24.37
2022-08-26T12:37:20.646Z,24.47
2022-08-26T12:39:49.942Z,24.40
2022-08-26T12:42:42.178Z,24.21
2022-08-26T12:45:30.133Z,23.81
2022-08-26T12:48:14.818Z,23.24
2022-08-26T12:57:20.518Z,23.09
2022-08-26T12:59:49.679Z,23.42
2022-08-26T13:02:37.316Z,23.61
2022-08-26T13:05:11.861Z,23.18
2022-08-26T13:07:41.281Z,23.58
2022-08-26T13:10:10.503Z,23.34
2022-08-26T13:12:42.191Z,23.38
2022-08-26T13:15:11.682Z,23.07
2022-08-26T13:17:40.900Z,23.13
2022-08-26T13:20:11.037Z,22.79
2022-08-26T13:25:10.491Z,22.98
2022-08-26T13:27:41.748Z,23.26
2022-08-26T13:30:17.407Z,23.65
2022-08-26T13:32:47.517Z,23.47
2022-08-26T13:35:17.171Z,23.69
2022-08-26T13:37:46.777Z,23.47
2022-08-26T13:40:15.981Z,24.45
2022-08-26T13:42:49.903Z,24.03
2022-08-26T13:45:25.288Z,23.80
2022-08-26T13:47:54.490Z,23.99
2022-08-26T13:50:23.488Z,23.72
2022-08-26T13:52:53.212Z,23.28
2022-08-26T13:55:22.335Z,22.72
2022-08-26T13:57:58.807Z,23.00
2022-08-26T14:00:28.258Z,23.13
2022-08-26T14:02:58.099Z,23.30
2022-08-26T14:05:27.575Z,23.00
2022-08-26T14:07:56.993Z,23.31
2022-08-26T14:10:27.865Z,22.95
2022-08-26T14:12:59.189Z,23.16
2022-08-26T14:15:29.089Z,23.24
2022-08-26T14:18:04.514Z,23.63
2022-08-26T14:20:46.239Z,23.47
2022-08-26T14:23:15.609Z,23.65
2022-08-26T14:25:45.158Z,23.40
2022-08-26T14:28:16.694Z,23.64
2022-08-26T14:30:58.312Z,23.78
2022-08-26T14:33:35.843Z,23.54
2022-08-26T14:36:19.005Z,24.71
2022-08-26T14:38:48.258Z,24.33
2022-08-26T14:41:18.828Z,23.98
2022-08-26T14:43:54.081Z,23.98
2022-08-26T14:46:26.653Z,23.59
2022-08-26T14:49:01.051Z,23.70
2022-08-26T14:51:31.463Z,23.49
2022-08-26T14:54:15.816Z,23.42
2022-08-26T14:56:49.163Z,23.75
2022-08-26T14:59:23.453Z,24.07
2022-08-26T15:01:53.118Z,23.70
2022-08-26T15:04:22.946Z,24.98
2022-08-26T15:06:54.061Z,24.43
2022-08-26T15:09:28.834Z,25.19
2022-08-26T15:11:58.567Z,24.88
2022-08-26T15:14:32.796Z,25.41
2022-08-26T15:17:02.943Z,25.23
2022-08-26T15:19:32.216Z,25.53
2022-08-26T15:22:01.694Z,25.51
2022-08-26T15:24:30.802Z,26.03
2022-08-26T15:27:00.072Z,26.01
2022-08-26T15:29:31.705Z,26.36
2022-08-26T15:32:06.805Z,27.58
2022-08-26T15:34:36.306Z,27.73
2022-08-26T15:37:05.712Z,28.95
2022-08-26T15:39:34.995Z,28.66
2022-08-26T15:42:04.555Z,28.88
2022-08-26T15:44:36.329Z,28.67
2022-08-26T15:47:11.113Z,29.44
2022-08-26T15:49:40.614Z,29.35
2022-08-26T15:52:09.956Z,29.55
2022-08-26T15:54:44.158Z,29.76
2022-08-26T15:57:15.358Z,29.67
2022-08-26T15:59:52.719Z,29.91
2022-08-26T16:02:22.524Z,30.68
2022-08-26T16:04:51.706Z,30.61
2022-08-26T16:07:28.868Z,31.19
2022-08-26T16:09:58.484Z,31.27
2022-08-26T16:12:27.861Z,31.10
2022-08-26T16:17:39.194Z,31.74
2022-08-26T16:20:13.718Z,32.09
2022-08-26T16:22:42.807Z,31.70
2022-08-26T16:25:12.713Z,32.11
2022-08-26T16:27:42.003Z,32.09
2022-08-26T16:30:22.420Z,32.48
2022-08-26T16:32:51.861Z,32.28
2022-08-26T16:35:21.289Z,33.18
2022-08-26T16:37:56.215Z,32.94
2022-08-26T16:40:26.144Z,33.10
2022-08-26T16:42:55.479Z,33.15
2022-08-26T16:45:27.395Z,33.60
2022-08-26T16:47:57.338Z,33.72
2022-08-26T16:50:26.742Z,34.01
2022-08-26T16:52:57.836Z,33.62
2022-08-26T16:55:27.321Z,34.10
2022-08-26T16:57:57.136Z,34.56
2022-08-26T17:00:30.568Z,34.50
2022-08-26T17:03:01.585Z,34.48
2022-08-26T17:05:31.487Z,34.86
2022-08-26T17:08:01.882Z,34.69
2022-08-26T17:10:32.459Z,34.79
2022-08-26T17:13:06.923Z,34.80
2022-08-26T17:15:38.408Z,34.59
2022-08-26T17:18:08.663Z,34.98
2022-08-26T17:20:48.732Z,35.10
2022-08-26T17:23:19.396Z,34.76
2022-08-26T17:25:49.273Z,35.16
2022-08-26T17:28:18.406Z,34.84
2022-08-26T17:30:54.828Z,35.06
2022-08-26T17:33:24.800Z,35.46
2022-08-26T17:36:00.117Z,35.14
2022-08-26T17:38:30.725Z,34.84
2022-08-26T17:41:00.869Z,35.55
2022-08-26T17:43:30.978Z,35.54
2022-08-26T17:46:08.525Z,36.26
2022-08-26T17:48:39.338Z,36.66
2022-08-26T17:51:10.679Z,36.57
2022-08-26T17:53:40.978Z,35.57
2022-08-26T17:56:12.059Z,36.46
2022-08-26T17:58:50.984Z,36.69
2022-08-26T18:01:30.749Z,36.83
2022-08-26T18:04:00.904Z,37.00
2022-08-26T18:06:31.239Z,37.25
2022-08-26T18:09:00.876Z,37.21
2022-08-26T18:11:36.624Z,37.28
2022-08-26T18:14:23.966Z,37.15
2022-08-26T18:16:55.441Z,38.19
2022-08-26T18:19:25.116Z,38.38
2022-08-26T18:21:54.433Z,38.52
2022-08-26T18:24:24.321Z,38.69
2022-08-26T18:26:53.481Z,38.92
2022-08-26T18:29:29.915Z,39.12
2022-08-26T18:32:01.492Z,39.68
2022-08-26T18:34:31.828Z,39.41
2022-08-26T18:37:01.308Z,40.30
2022-08-26T18:39:31.255Z,40.02
2022-08-26T18:42:01.719Z,39.84
2022-08-26T18:44:31.372Z,41.30
2022-08-26T18:47:04.614Z,41.08
2022-08-26T18:49:39.094Z,41.59
2022-08-26T18:52:08.911Z,42.13
2022-08-26T18:54:38.674Z,42.97
2022-08-26T18:57:08.172Z,42.99
2022-08-26T18:59:37.413Z,42.75
2022-08-26T19:02:09.865Z,43.36
2022-08-26T19:04:40.148Z,43.55
2022-08-26T19:07:09.690Z,43.36
2022-08-26T19:09:44.268Z,44.06
2022-08-26T19:12:14.762Z,43.16
2022-08-26T19:14:46.338Z,43.65
2022-08-26T19:17:18.287Z,44.51
2022-08-26T19:19:53.348Z,44.81
2022-08-26T19:22:24.384Z,44.77
2022-08-26T19:24:53.913Z,44.99
2022-08-26T19:27:23.307Z,45.41
2022-08-26T19:29:52.816Z,45.91
2022-08-26T19:32:29.951Z,46.32
2022-08-26T19:34:59.638Z,46.65
2022-08-26T19:37:28.894Z,47.08
2022-08-26T19:40:04.486Z,47.17
2022-08-26T19:42:35.294Z,47.00
2022-08-26T19:45:25.267Z,47.03
2022-08-26T19:47:57.216Z,47.07
2022-08-26T19:50:28.797Z,47.58
2022-08-26T19:52:58.054Z,46.15
2022-08-26T19:55:27.710Z,47.02
2022-08-26T19:57:57.346Z,46.31
2022-08-26T20:00:31.635Z,46.71
2022-08-26T20:03:03.539Z,47.21
2022-08-26T20:05:32.993Z,47.78
2022-08-26T20:08:07.147Z,48.38
2022-08-26T20:10:41.070Z,48.63
2022-08-26T20:15:58.497Z,49.16
2022-08-26T20:18:42.759Z,49.51
2022-08-26T20:21:29.045Z,49.88
2022-08-26T20:24:08.186Z,49.82
2022-08-26T20:26:39.787Z,50.49
2022-08-26T20:29:09.916Z,49.02
2022-08-26T20:31:42.615Z,49.60
2022-08-26T20:34:20.717Z,49.51
2022-08-26T20:36:51.393Z,50.70
2022-08-26T20:39:28.824Z,50.72
2022-08-26T20:41:58.580Z,50.30
2022-08-26T20:44:27.952Z,51.16
2022-08-26T20:47:02.839Z,51.32
2022-08-26T20:49:34.241Z,50.77
2022-08-26T20:52:05.563Z,51.27
2022-08-26T20:54:34.720Z,51.48
2022-08-26T20:57:04.137Z,51.30
2022-08-26T20:59:38.550Z,51.72
2022-08-26T21:02:12.826Z,51.69
2022-08-26T21:04:44.372Z,52.23
2022-08-26T21:07:13.463Z,50.58
2022-08-26T21:09:42.629Z,50.48
2022-08-26T21:12:17.920Z,50.60
2022-08-26T21:14:49.689Z,50.88
2022-08-26T21:17:19.713Z,51.19
2022-08-26T21:19:50.800Z,51.82
2022-08-26T21:22:25.194Z,51.85
2022-08-26T21:24:54.434Z,52.46
2022-08-26T21:27:26.599Z,52.72
2022-08-26T21:29:57.681Z,53.20
2022-08-26T21:32:26.895Z,53.92
2022-08-26T21:34:59.642Z,53.18
2022-08-26T21:37:30.104Z,53.29
2022-08-26T21:40:01.538Z,53.56
2022-08-26T21:42:35.142Z,54.14
2022-08-26T21:45:06.150Z,54.06
2022-08-26T21:47:36.003Z,53.63
2022-08-26T21:50:09.038Z,54.44
2022-08-26T21:52:38.891Z,54.02
2022-08-26T21:55:09.519Z,54.61
2022-08-26T21:57:46.066Z,54.42
2022-08-26T22:00:16.706Z,54.39
2022-08-26T22:02:46.098Z,53.92
2022-08-26T22:05:22.265Z,54.03
2022-08-26T22:07:51.638Z,54.04
2022-08-26T22:10:26.206Z,54.10
2022-08-26T22:12:55.593Z,54.73
2022-08-26T22:15:27.090Z,54.81
2022-08-26T22:17:56.326Z,55.26
2022-08-26T22:20:27.357Z,54.98
2022-08-26T22:22:56.759Z,55.08
2022-08-26T22:25:25.924Z,55.27
2022-08-26T22:27:55.573Z,55.47
2022-08-26T22:30:24.994Z,55.44
2022-08-26T22:32:54.497Z,55.86
2022-08-26T22:35:29.729Z,55.94
2022-08-26T22:38:01.362Z,56.67
2022-08-26T22:40:33.981Z,55.01
2022-08-26T22:43:04.118Z,56.32
2022-08-26T22:45:39.421Z,56.24
2022-08-26T22:48:08.953Z,56.48
2022-08-26T22:50:39.253Z,56.66
2022-08-26T22:53:11.169Z,56.89
2022-08-26T22:55:40.571Z,57.05
2022-08-26T22:58:09.889Z,56.94
2022-08-26T23:00:44.483Z,57.49
2022-08-26T23:03:14.203Z,57.40
2022-08-26T23:05:48.793Z,57.56
2022-08-26T23:08:22.041Z,58.07
2022-08-26T23:11:01.389Z,57.91
2022-08-26T23:13:31.006Z,57.94
2022-08-26T23:18:39.148Z,58.08
2022-08-26T23:21:08.775Z,58.96
2022-08-26T23:23:46.444Z,58.87
2022-08-26T23:26:17.734Z,58.67
2022-08-26T23:31:24.105Z,58.73
2022-08-26T23:34:06.359Z,58.57
2022-08-26T23:36:36.696Z,59.33
2022-08-26T23:39:08.975Z,59.26
2022-08-26T23:41:38.445Z,59.78
2022-08-26T23:44:08.984Z,59.90
2022-08-26T23:46:38.540Z,59.44
2022-08-26T23:49:08.228Z,59.84
2022-08-26T23:51:50.730Z,60.50
2022-08-26T23:54:22.348Z,61.25
2022-08-26T23:56:56.805Z,61.52
2022-08-26T23:59:26.319Z,61.55
